createdAt,value
2022-08-23T00:02:09.143Z,100319.02
2022-08-23T00:17:34.490Z,100315.24
2022-08-23T00:32:39.977Z,100312.58
2022-08-23T00:47:44.859Z,100305.38
2022-08-23T01:02:51.471Z,100300.60
2022-08-23T01:18:03.705Z,100298.52
2022-08-23T01:33:07.691Z,100301.29
2022-08-23T01:48:11.119Z,100312.19
2022-08-23T02:03:16.118Z,100317.92
2022-08-23T02:18:21.833Z,100320.92
2022-08-23T02:33:25.032Z,100323.17
2022-08-23T02:48:28.256Z,100338.11
2022-08-23T03:03:37.837Z,100342.09
2022-08-23T03:18:43.064Z,100345.96
2022-08-23T03:33:46.851Z,100346.63
2022-08-23T03:48:54.484Z,100351.02
2022-08-23T04:04:01.404Z,100348.73
2022-08-23T04:19:13.348Z,100348.38
2022-08-23T04:34:24.722Z,100337.39
2022-08-23T04:49:32.822Z,100347.71
2022-08-23T05:04:36.933Z,100339.41
2022-08-23T05:19:44.357Z,100323.86
2022-08-23T05:34:51.453Z,100337.60
2022-08-23T05:49:55.857Z,100373.56
2022-08-23T06:05:00.085Z,100408.33
2022-08-23T06:20:07.200Z,100406.83
2022-08-23T06:35:38.150Z,100421.05
2022-08-23T06:50:43.813Z,100413.83
2022-08-23T07:06:16.068Z,100441.17
2022-08-23T07:21:20.171Z,100441.23
2022-08-23T07:36:24.396Z,100451.60
2022-08-23T07:51:31.153Z,100448.02
2022-08-23T08:06:59.871Z,100450.50
2022-08-23T08:22:13.571Z,100450.03
2022-08-23T08:37:40.205Z,100454.11
2022-08-23T08:52:57.894Z,100449.06
2022-08-23T09:08:59.122Z,100450.65
2022-08-23T09:24:03.600Z,100440.25
2022-08-23T09:39:41.022Z,100435.50
2022-08-23T09:54:57.695Z,100435.60
2022-08-23T10:10:26.721Z,100438.95
2022-08-23T10:25:59.377Z,100431.10
2022-08-23T10:41:25.356Z,100421.55
2022-08-23T10:56:30.932Z,100410.62
2022-08-23T11:11:49.041Z,100405.06
2022-08-23T11:26:52.581Z,100392.35
2022-08-23T11:41:56.535Z,100393.05
2022-08-23T11:57:18.685Z,100384.77
2022-08-23T12:12:34.843Z,100360.75
2022-08-23T12:27:49.517Z,100361.52
2022-08-23T12:43:04.432Z,100359.14
2022-08-23T12:58:09.531Z,100349.95
2022-08-23T13:13:16.397Z,100334.33
2022-08-23T13:28:27.290Z,100337.55
2022-08-23T13:43:51.527Z,100388.27
2022-08-23T13:58:58.354Z,100410.77
2022-08-23T14:14:02.507Z,100399.78
2022-08-23T14:29:06.307Z,100396.58
2022-08-23T14:44:10.197Z,100431.29
2022-08-23T14:59:14.024Z,100458.33
2022-08-23T15:14:17.956Z,100496.89
2022-08-23T15:29:22.171Z,100582.63
2022-08-23T15:44:25.895Z,100574.95
2022-08-23T15:59:31.834Z,100508.50
2022-08-23T16:14:37.175Z,100491.49
2022-08-23T16:29:41.740Z,100491.70
2022-08-23T16:44:45.673Z,100490.88
2022-08-23T16:59:50.594Z,100501.34
2022-08-23T17:14:57.585Z,100508.19
2022-08-23T17:30:01.077Z,100519.96
2022-08-23T17:45:07.477Z,100512.20
2022-08-23T18:00:12.507Z,100532.48
2022-08-23T18:15:15.928Z,100532.49
2022-08-23T18:30:21.265Z,100527.13
2022-08-23T18:45:26.154Z,100537.50
2022-08-23T19:00:32.362Z,100532.67
2022-08-23T19:15:37.245Z,100524.90
2022-08-23T19:30:42.297Z,100528.09
2022-08-23T19:45:46.564Z,100530.97
2022-08-23T20:00:50.498Z,100543.72
2022-08-23T20:15:56.382Z,100556.95
2022-08-23T20:31:07.995Z,100569.66
2022-08-23T20:46:12.140Z,100573.36
2022-08-23T21:01:16.986Z,100573.94
2022-08-23T21:16:21.053Z,100614.85
2022-08-23T21:31:26.452Z,100742.48
2022-08-23T21:46:29.784Z,100696.48
2022-08-23T22:01:36.890Z,100635.46
2022-08-23T22:16:49.710Z,100602.36
2022-08-23T22:31:58.874Z,100575.73
2022-08-23T22:47:01.879Z,100568.43
2022-08-23T23:02:05.468Z,100558.04
2022-08-23T23:17:08.638Z,100570.79
2022-08-23T23:32:11.865Z,100593.88
2022-08-23T23:47:14.924Z,100588.56
